Time;durP1;ratioP1;P1;durP2;ratioP2;P2;SDS_P1;SDS_P2;PMS_P1;PMS_P2;Temp;Humidity;BMP_temperature;BMP_pressure;BME280_temperature;BME280_humidity;BME280_pressure;Samples;Min_cycle;Max_cycle;Signal;HPM_P1;HPM_P2
2023/10/07 00:02:12;;;;;;;17.83;6.70;;;16.40;73.50;;;;;;5104175;28;20052;-89
2023/10/07 00:04:41;;;;;;;17.83;5.80;;;16.50;73.50;;;;;;5121487;27;20048;-89
2023/10/07 00:07:10;;;;;;;21.80;5.95;;;15.70;72.70;;;;;;5119674;27;20400;-89
2023/10/07 00:09:53;;;;;;;11.85;5.30;;;16.40;73.00;;;;;;5102257;28;20044;-89
2023/10/07 00:12:19;;;;;;;13.35;5.65;;;16.40;73.30;;;;;;5119344;28;20136;-89
2023/10/07 00:14:49;;;;;;;17.27;5.03;;;15.60;72.90;;;;;;5102042;28;20054;-89
2023/10/07 00:17:20;;;;;;;14.90;4.82;;;16.40;73.90;;;;;;5102224;28;20140;-89
2023/10/07 00:19:48;;;;;;;15.30;6.30;;;16.50;73.50;;;;;;5119717;28;20047;-88
2023/10/07 00:22:14;;;;;;;19.60;5.53;;;16.50;73.00;;;;;;5119576;28;20044;-88
2023/10/07 00:24:43;;;;;;;12.25;5.20;;;15.60;71.90;;;;;;5101856;28;20070;-89
2023/10/07 00:27:30;;;;;;;17.40;5.30;;;16.50;72.00;;;;;;5118428;28;20056;-89
2023/10/07 00:30:00;;;;;;;14.50;5.78;;;16.50;71.80;;;;;;5103011;28;20055;-90
2023/10/07 00:32:32;;;;;;;12.10;5.38;;;16.50;71.60;;;;;;5117856;28;20727;-88
2023/10/07 00:35:29;;;;;;;;;;;;;;;;;;;;;
2023/10/07 00:38:08;;;;;;;10.80;5.07;;;15.90;72.10;;;;;;5137627;27;20043;-91
2023/10/07 00:40:52;;;;;;;18.17;5.43;;;16.70;72.20;;;;;;5122919;27;20075;-89
2023/10/07 00:43:30;;;;;;;12.55;5.47;;;17.00;72.50;;;;;;5135864;27;20043;-88
2023/10/07 00:46:10;;;;;;;16.73;5.60;;;16.50;72.30;;;;;;5118280;28;20052;-89
2023/10/07 00:48:53;;;;;;;12.55;5.50;;;16.50;72.50;;;;;;5119101;28;20048;-88
2023/10/07 00:51:34;;;;;;;11.18;4.55;;;16.20;72.30;;;;;;5120438;27;20048;-89
2023/10/07 00:54:30;;;;;;;16.42;4.75;;;17.10;73.10;;;;;;5101824;28;20074;-90
2023/10/07 00:57:01;;;;;;;17.33;5.60;;;16.50;73.40;;;;;;5117836;28;20417;-89
2023/10/07 00:59:30;;;;;;;14.63;6.32;;;16.40;73.50;;;;;;5116979;28;20407;-89
2023/10/07 01:02:00;;;;;;;12.90;4.90;;;16.50;74.30;;;;;;5101366;28;20043;-89
2023/10/07 01:04:40;;;;;;;10.10;4.80;;;16.50;74.30;;;;;;5135851;27;20063;-88
2023/10/07 01:07:18;;;;;;;13.15;5.38;;;16.50;75.00;;;;;;5120300;27;20481;-90
2023/10/07 01:12:51;;;;;;;14.82;6.15;;;16.60;76.80;;;;;;5102629;28;20135;-88
2023/10/07 01:17:47;;;;;;;10.45;5.10;;;16.50;79.00;;;;;;5101207;28;20044;-89
2023/10/07 01:20:15;;;;;;;11.57;5.22;;;16.40;80.00;;;;;;5100578;28;20047;-90
2023/10/07 01:23:32;;;;;;;15.23;5.50;;;16.40;80.70;;;;;;5084382;28;20039;-88
2023/10/07 01:25:34;;;;;;;15.95;5.68;;;15.80;81.50;;;;;;5111317;28;20043;-88
2023/10/07 01:28:02;;;;;;;14.23;5.90;;;16.50;82.70;;;;;;5098803;28;20083;-87
2023/10/07 01:30:34;;;;;;;14.25;5.53;;;16.40;84.10;;;;;;5098765;28;20124;-88
2023/10/07 01:33:24;;;;;;;14.98;5.30;;;16.40;85.40;;;;;;5116374;28;20086;-91
2023/10/07 01:38:50;;;;;;;13.05;5.93;;;16.30;89.60;;;;;;5115974;28;20051;-88
2023/10/07 01:41:20;;;;;;;15.00;6.07;;;16.40;90.20;;;;;;5099938;28;20051;-90
2023/10/07 01:43:59;;;;;;;14.35;5.63;;;16.30;90.60;;;;;;5118047;28;20052;-88
2023/10/07 01:46:31;;;;;;;14.98;6.95;;;16.30;91.30;;;;;;5118426;28;20078;-89
2023/10/07 01:49:12;;;;;;;11.48;5.28;;;16.30;91.80;;;;;;5117995;28;20580;-88
2023/10/07 01:51:44;;;;;;;14.68;6.07;;;16.40;91.90;;;;;;5118307;27;20136;-89
2023/10/07 01:54:13;;;;;;;16.02;5.90;;;16.30;91.80;;;;;;5100429;28;20366;-89
2023/10/07 01:56:41;;;;;;;15.15;5.90;;;16.30;91.60;;;;;;5118011;28;20138;-89
2023/10/07 02:01:42;;;;;;;16.30;6.13;;;15.50;91.60;;;;;;5117271;28;20082;-89
2023/10/07 02:04:17;;;;;;;11.07;5.53;;;16.40;91.50;;;;;;5099914;28;20043;-89
2023/10/07 02:06:56;;;;;;;16.63;6.63;;;16.50;91.70;;;;;;5118132;27;20040;-89
2023/10/07 02:09:38;;;;;;;;;;;;;;;;;;;;;
2023/10/07 02:12:16;;;;;;;17.58;6.25;;;16.50;90.90;;;;;;5117259;28;20048;-92
2023/10/07 02:14:44;;;;;;;11.25;5.35;;;16.50;90.60;;;;;;5101031;28;20055;-88
2023/10/07 02:17:18;;;;;;;18.38;6.65;;;16.50;90.60;;;;;;5117639;28;20066;-88
2023/10/07 02:19:44;;;;;;;13.55;4.95;;;16.60;90.20;;;;;;5100203;28;20047;-88
2023/10/07 02:22:30;;;;;;;12.48;5.30;;;16.50;90.00;;;;;;5116548;28;20094;-89
2023/10/07 02:25:04;;;;;;;17.52;5.25;;;16.60;89.30;;;;;;5120492;28;20058;-89
2023/10/07 02:27:41;;;;;;;13.45;5.20;;;16.60;89.00;;;;;;5099651;28;20036;-88
2023/10/07 02:30:23;;;;;;;16.38;5.97;;;16.60;88.40;;;;;;5117935;28;20526;-88
2023/10/07 02:32:52;;;;;;;15.32;6.55;;;16.00;87.80;;;;;;5099713;28;20044;-88
2023/10/07 02:35:21;;;;;;;18.08;5.90;;;16.60;88.20;;;;;;5133532;28;20085;-88
2023/10/07 02:37:49;;;;;;;14.55;5.82;;;16.60;87.90;;;;;;5116139;28;20043;-88
2023/10/07 02:40:22;;;;;;;16.63;5.18;;;16.60;87.90;;;;;;5116975;28;20093;-88
2023/10/07 02:42:51;;;;;;;16.05;5.45;;;16.70;87.20;;;;;;5100059;28;20067;-90
2023/10/07 02:45:28;;;;;;;14.13;5.90;;;16.40;87.00;;;;;;5100381;28;20043;-89
2023/10/07 02:48:01;;;;;;;14.32;4.97;;;16.70;86.70;;;;;;5100611;28;20090;-88
2023/10/07 02:50:31;;;;;;;14.88;4.90;;;16.70;85.90;;;;;;5100228;28;20583;-89
2023/10/07 02:52:57;;;;;;;15.18;5.47;;;16.70;85.70;;;;;;5100051;28;20048;-89
2023/10/07 02:55:37;;;;;;;13.60;5.10;;;16.70;85.20;;;;;;5099470;28;20043;-88
2023/10/07 02:58:03;;;;;;;14.80;5.13;;;16.80;84.80;;;;;;5099011;28;20035;-88
2023/10/07 03:00:49;;;;;;;11.90;5.32;;;16.70;84.70;;;;;;5116399;28;20462;-89
2023/10/07 03:03:32;;;;;;;11.75;5.18;;;16.80;84.20;;;;;;5099752;28;20107;-88
2023/10/07 03:05:59;;;;;;;11.85;4.82;;;16.80;84.20;;;;;;5098381;28;20051;-89
2023/10/07 03:09:00;;;;;;;;;;;;;;;;;;;;;
2023/10/07 03:11:48;;;;;;;14.80;5.65;;;16.80;83.30;;;;;;5107303;28;20401;-92
2023/10/07 03:14:25;;;;;;;12.07;4.72;;;16.80;83.10;;;;;;5117715;28;20046;-88
2023/10/07 03:17:16;;;;;;;16.60;5.22;;;16.30;82.60;;;;;;5118281;28;20047;-93
2023/10/07 03:20:01;;;;;;;10.02;4.95;;;16.80;82.20;;;;;;5118401;28;20044;-89
2023/10/07 03:22:43;;;;;;;12.55;5.25;;;16.90;82.10;;;;;;5132722;28;20055;-89
2023/10/07 03:25:17;;;;;;;8.90;4.22;;;16.80;82.00;;;;;;5118508;28;20052;-89
2023/10/07 03:27:49;;;;;;;14.80;4.60;;;16.80;82.10;;;;;;5098320;28;20036;-90
2023/10/07 03:30:15;;;;;;;11.68;4.72;;;16.80;81.50;;;;;;5099695;28;20497;-89
2023/10/07 03:32:59;;;;;;;11.23;4.70;;;16.90;81.80;;;;;;5098691;28;20083;-88
2023/10/07 03:35:35;;;;;;;16.05;4.90;;;16.90;81.00;;;;;;5116704;28;20044;-88
2023/10/07 03:38:08;;;;;;;12.75;4.15;;;16.90;81.70;;;;;;5115906;28;20048;-89
2023/10/07 03:40:48;;;;;;;15.57;4.53;;;16.90;80.60;;;;;;5133978;28;20039;-88
2023/10/07 03:43:21;;;;;;;9.73;4.82;;;16.80;80.60;;;;;;5100710;28;20104;-89
2023/10/07 03:45:49;;;;;;;12.68;5.40;;;16.80;80.80;;;;;;5098893;28;20044;-89
2023/10/07 03:48:24;;;;;;;15.65;4.55;;;16.90;80.90;;;;;;5117028;28;20527;-89
2023/10/07 03:50:59;;;;;;;11.95;4.82;;;16.90;81.00;;;;;;5101657;28;20040;-89
2023/10/07 03:53:32;;;;;;;12.90;5.10;;;16.80;81.00;;;;;;5121837;27;20039;-88
2023/10/07 03:56:07;;;;;;;11.82;5.00;;;17.50;80.50;;;;;;5119368;28;20035;-92
2023/10/07 03:58:37;;;;;;;12.50;5.22;;;16.90;80.40;;;;;;5119265;28;20040;-91
2023/10/07 04:01:22;;;;;;;12.57;5.10;;;16.30;80.70;;;;;;5102403;28;20099;-88
2023/10/07 04:04:11;;;;;;;13.48;5.43;;;16.40;80.50;;;;;;5103546;28;20048;-90
2023/10/07 04:06:47;;;;;;;13.77;4.95;;;16.80;80.30;;;;;;5086516;28;20052;-90
2023/10/07 04:09:16;;;;;;;14.95;5.13;;;16.90;81.40;;;;;;5153662;27;20050;-89
2023/10/07 04:11:50;;;;;;;13.02;4.07;;;17.20;81.50;;;;;;5085337;28;20051;-90
2023/10/07 04:14:22;;;;;;;7.43;4.03;;;16.80;81.90;;;;;;5102361;28;20043;-88
2023/10/07 04:17:00;;;;;;;12.48;4.70;;;17.80;82.60;;;;;;5153636;27;20047;-89
2023/10/07 04:22:00;;;;;;;16.80;5.53;;;16.80;82.20;;;;;;5118072;28;20105;-89
2023/10/07 04:24:31;;;;;;;12.73;5.20;;;16.80;82.40;;;;;;5153803;27;20054;-90
2023/10/07 04:27:05;;;;;;;12.38;4.43;;;16.80;82.30;;;;;;5119330;28;20189;-89
2023/10/07 04:29:37;;;;;;;13.25;4.53;;;17.50;82.50;;;;;;5119690;28;20063;-89
2023/10/07 04:32:20;;;;;;;14.55;5.68;;;16.80;82.30;;;;;;5152139;27;20063;-88
2023/10/07 04:45:53;;;;;;;15.75;5.90;;;16.80;82.60;;;;;;5117437;28;20047;-89
2023/10/07 04:48:31;;;;;;;8.13;4.60;;;16.80;82.50;;;;;;5100690;28;20347;-88
2023/10/07 04:51:12;;;;;;;11.85;4.90;;;16.80;82.30;;;;;;5086101;28;20054;-89
2023/10/07 04:53:43;;;;;;;9.57;4.50;;;16.90;82.30;;;;;;5101852;28;20051;-89
2023/10/07 04:56:21;;;;;;;12.32;4.50;;;16.80;82.50;;;;;;5101247;28;20047;-89
2023/10/07 04:58:52;;;;;;;9.18;4.40;;;16.80;82.40;;;;;;5100803;28;20388;-89
2023/10/07 05:01:40;;;;;;;13.60;5.13;;;16.80;82.70;;;;;;5154084;27;20097;-89
2023/10/07 05:04:10;;;;;;;10.15;4.60;;;16.80;82.60;;;;;;5101255;28;20142;-89
2023/10/07 05:06:41;;;;;;;14.57;6.00;;;16.80;83.40;;;;;;5101176;28;20074;-89
2023/10/07 05:09:18;;;;;;;11.48;5.28;;;16.80;83.70;;;;;;5101292;28;20051;-89
2023/10/07 05:11:47;;;;;;;14.15;5.25;;;16.80;84.20;;;;;;5101277;28;20082;-91
2023/10/07 05:14:25;;;;;;;10.52;4.50;;;16.80;84.90;;;;;;5152560;27;20047;-89
2023/10/07 05:16:56;;;;;;;13.73;4.95;;;16.80;85.50;;;;;;5100925;28;20051;-89
2023/10/07 05:19:33;;;;;;;12.30;5.47;;;16.80;85.90;;;;;;5102171;28;20097;-89
2023/10/07 05:22:19;;;;;;;13.35;4.78;;;16.80;86.70;;;;;;5117455;28;20044;-89
2023/10/07 05:24:47;;;;;;;10.50;4.68;;;16.70;86.80;;;;;;5100450;28;20116;-91
2023/10/07 05:27:13;;;;;;;12.30;5.00;;;16.70;87.20;;;;;;5101126;28;20051;-89
2023/10/07 05:29:43;;;;;;;13.23;4.93;;;15.80;87.00;;;;;;5152092;27;20105;-89
2023/10/07 05:32:10;;;;;;;13.50;6.28;;;16.70;88.00;;;;;;5101345;28;20063;-89
2023/10/07 05:34:45;;;;;;;;;;;16.70;88.30;;;;;;5084778;28;20043;-90
2023/10/07 05:37:15;;;;;;;13.70;5.53;;;15.80;90.20;;;;;;5101944;28;19971;-89
2023/10/07 05:39:48;;;;;;;12.30;4.50;;;16.70;88.30;;;;;;5152455;27;20039;-89
2023/10/07 05:42:19;;;;;;;11.02;4.68;;;16.70;88.40;;;;;;5118987;28;20047;-90
2023/10/07 05:44:44;;;;;;;14.50;5.63;;;17.10;89.20;;;;;;5101780;28;20040;-89
2023/10/07 05:47:12;;;;;;;9.97;4.53;;;16.70;89.40;;;;;;5100725;28;20050;-88
2023/10/07 05:49:41;;;;;;;13.38;4.93;;;16.70;89.90;;;;;;5100692;28;20392;-88
2023/10/07 05:52:11;;;;;;;13.57;5.35;;;16.70;90.30;;;;;;5083497;28;20046;-89
2023/10/07 05:54:40;;;;;;;12.07;4.85;;;16.70;90.60;;;;;;5084920;28;20493;-89
2023/10/07 05:57:09;;;;;;;12.93;5.05;;;16.70;90.80;;;;;;5083716;28;20058;-89
2023/10/07 05:59:38;;;;;;;13.43;6.15;;;16.70;91.00;;;;;;5100774;28;20097;-89
2023/10/07 06:02:14;;;;;;;14.50;4.90;;;16.70;91.00;;;;;;5099558;28;20081;-89
2023/10/07 06:04:44;;;;;;;15.15;5.55;;;15.70;90.80;;;;;;5100469;28;20040;-89
2023/10/07 06:07:20;;;;;;;11.10;4.82;;;16.60;91.20;;;;;;5117079;27;20489;-89
2023/10/07 06:09:48;;;;;;;12.52;5.45;;;16.70;91.30;;;;;;5100270;28;20036;-89
2023/10/07 06:12:15;;;;;;;10.15;5.72;;;16.60;91.40;;;;;;5083744;28;20096;-89
2023/10/07 06:14:42;;;;;;;12.93;5.25;;;16.70;91.60;;;;;;5100855;28;20515;-89
2023/10/07 06:17:11;;;;;;;15.32;5.18;;;16.70;91.50;;;;;;5101016;28;20122;-90
2023/10/07 06:19:38;;;;;;;13.77;5.10;;;16.70;91.50;;;;;;5100897;28;20043;-88
2023/10/07 06:22:15;;;;;;;13.48;5.15;;;16.60;91.70;;;;;;5117320;28;20088;-89
2023/10/07 06:25:07;;;;;;;8.18;4.90;;;16.60;91.70;;;;;;5100414;28;20116;-89
2023/10/07 06:27:42;;;;;;;14.07;5.35;;;16.70;91.90;;;;;;5101023;28;20050;-89
2023/10/07 06:30:11;;;;;;;15.32;4.95;;;16.60;92.30;;;;;;5101347;28;20051;-91
2023/10/07 06:33:01;;;;;;;;;;;;;;;;;;;;;
2023/10/07 06:35:32;;;;;;;16.27;4.95;;;16.60;92.50;;;;;;5092535;28;20063;-91
2023/10/07 06:38:03;;;;;;;14.23;4.70;;;16.60;93.00;;;;;;5100454;28;20051;-92
2023/10/07 06:43:39;;;;;;;15.20;5.38;;;16.60;93.30;;;;;;5101485;28;20416;-92
2023/10/07 06:47:02;;;;;;;14.38;5.40;;;16.60;93.10;;;;;;5117573;28;20108;-93
2023/10/07 06:49:56;;;;;;;15.23;5.45;;;17.00;94.30;;;;;;5101811;28;20043;-90
2023/10/07 06:52:25;;;;;;;10.60;5.55;;;16.60;93.70;;;;;;5101860;28;20062;-91
2023/10/07 06:55:18;;;;;;;15.48;4.90;;;16.60;93.20;;;;;;5102383;28;20130;-91
2023/10/07 06:57:53;;;;;;;17.10;5.65;;;16.70;93.40;;;;;;5101731;28;20116;-93
2023/10/07 07:00:37;;;;;;;10.82;5.18;;;16.60;93.20;;;;;;5102008;28;20047;-91
2023/10/07 07:03:12;;;;;;;15.77;5.40;;;15.80;93.00;;;;;;5086711;28;20075;-91
2023/10/07 07:05:50;;;;;;;;;;;;;;;;;;;;;
2023/10/07 07:11:29;;;;;;;;;;;;;;;;;;;;;
2023/10/07 07:14:03;;;;;;;13.98;5.57;;;16.60;92.80;;;;;;5117255;28;20066;-91
2023/10/07 07:16:41;;;;;;;19.25;6.97;;;16.70;92.60;;;;;;5084096;28;20040;-91
2023/10/07 07:19:32;;;;;;;;;;;;;;;;;;;;;
2023/10/07 07:22:17;;;;;;;12.98;5.45;;;16.80;92.10;;;;;;5120094;28;20050;-91
2023/10/07 07:25:21;;;;;;;12.40;5.30;;;16.90;92.30;;;;;;5101175;28;20049;-91
2023/10/07 07:28:03;;;;;;;;;;;;;;;;;;;;;
2023/10/07 07:30:46;;;;;;;12.15;5.53;;;17.60;90.90;;;;;;5108048;28;20044;-89
2023/10/07 07:33:25;;;;;;;;;;;;;;;;;;;;;
2023/10/07 07:36:06;;;;;;;18.77;6.07;;;17.00;88.60;;;;;;5122149;28;20048;-91
2023/10/07 07:38:47;;;;;;;16.70;5.88;;;16.60;87.00;;;;;;5157570;27;20043;-93
2023/10/07 07:42:15;;;;;;;12.10;5.53;;;16.70;86.30;;;;;;5088557;28;20051;-91
2023/10/07 07:45:23;;;;;;;19.35;6.72;;;17.10;83.80;;;;;;5106889;28;20505;-93
2023/10/07 07:47:58;;;;;;;14.30;5.70;;;17.10;84.00;;;;;;5042650;28;20056;-91
2023/10/07 07:50:29;;;;;;;11.93;4.32;;;17.20;83.90;;;;;;5103512;28;20043;-91
2023/10/07 07:56:40;;;;;;;10.88;4.38;;;17.30;81.60;;;;;;5108541;28;20134;-90
2023/10/07 07:59:33;;;;;;;19.50;5.70;;;17.50;77.20;;;;;;5104595;28;20107;-93
2023/10/07 08:02:15;;;;;;;16.33;5.32;;;17.40;77.70;;;;;;5105590;28;20050;-92
2023/10/07 08:05:02;;;;;;;16.30;5.68;;;17.40;77.40;;;;;;5088625;28;20055;-93
2023/10/07 08:08:00;;;;;;;11.95;5.40;;;17.50;74.60;;;;;;5102788;28;20039;-91
2023/10/07 08:10:28;;;;;;;9.93;5.63;;;17.60;71.80;;;;;;5090172;28;20481;-91
2023/10/07 08:13:01;;;;;;;12.90;4.97;;;17.50;73.20;;;;;;5103070;28;20060;-92
2023/10/07 08:18:37;;;;;;;12.05;5.30;;;17.50;70.30;;;;;;5065484;28;20135;-93
2023/10/07 08:21:17;;;;;;;;;;;;;;;;;;;;;
2023/10/07 08:24:14;;;;;;;14.75;5.40;;;17.60;68.40;;;;;;5121634;28;20484;-93
2023/10/07 08:30:28;;;;;;;;;;;;;;;;;;;;;
2023/10/07 08:33:12;;;;;;;11.63;5.45;;;17.60;65.90;;;;;;5086831;28;20097;-92
2023/10/07 08:36:09;;;;;;;;;;;;;;;;;;;;;
2023/10/07 08:39:28;;;;;;;11.82;5.68;;;17.50;62.70;;;;;;5085637;28;20052;-91
2023/10/07 08:42:12;;;;;;;9.93;4.75;;;17.60;59.80;;;;;;5097804;28;20052;-91
2023/10/07 08:45:14;;;;;;;;;;;;;;;;;;;;;
2023/10/07 08:48:23;;;;;;;13.38;5.22;;;17.60;62.80;;;;;;5099539;28;20070;-92
2023/10/07 08:51:21;;;;;;;11.73;5.32;;;17.60;58.20;;;;;;5081318;28;20491;-90
2023/10/07 08:54:09;;;;;;;12.55;5.00;;;17.70;61.00;;;;;;5083128;28;20044;-89
2023/10/07 08:56:38;;;;;;;10.93;5.25;;;17.70;58.70;;;;;;5081109;28;20052;-88
2023/10/07 09:02:55;;;;;;;8.40;4.20;;;17.30;56.00;;;;;;5091569;28;20043;-90
2023/10/07 09:05:24;;;;;;;15.65;5.35;;;18.00;56.40;;;;;;5097593;28;20051;-93
2023/10/07 09:08:08;;;;;;;;;;;;;;;;;;;;;
2023/10/07 09:10:48;;;;;;;11.15;5.05;;;17.80;53.30;;;;;;5084815;28;20054;-91
2023/10/07 09:13:26;;;;;;;13.38;5.20;;;18.30;51.00;;;;;;5084889;28;20508;-93
2023/10/07 09:16:02;;;;;;;14.23;5.15;;;18.00;50.50;;;;;;5134886;27;20040;-91
2023/10/07 09:18:57;;;;;;;11.52;5.38;;;18.00;49.70;;;;;;5067797;28;20047;-91
2023/10/07 09:21:36;;;;;;;;;;;;;;;;;;;;;
2023/10/07 09:24:03;;;;;;;13.88;4.55;;;17.90;50.30;;;;;;5084276;28;20050;-89
2023/10/07 09:26:36;;;;;;;14.18;5.03;;;17.90;49.60;;;;;;5080417;28;20050;-88
2023/10/07 09:29:17;;;;;;;9.30;4.45;;;17.10;48.20;;;;;;5088997;28;20482;-90
2023/10/07 09:31:56;;;;;;;20.50;4.95;;;18.00;49.10;;;;;;5102757;28;20078;-92
2023/10/07 09:37:54;;;;;;;;;;;;;;;;;;;;;
2023/10/07 09:43:33;;;;;;;;;;;;;;;;;;;;;
2023/10/07 09:48:59;;;;;;;12.18;4.90;;;18.00;42.50;;;;;;5152786;27;20083;-92
2023/10/07 09:51:41;;;;;;;17.27;5.47;;;18.00;43.50;;;;;;5118739;28;20102;-91
2023/10/07 09:54:47;;;;;;;11.07;4.68;;;18.00;43.10;;;;;;5086945;28;20138;-91
2023/10/07 09:57:42;;;;;;;10.82;4.93;;;18.00;36.00;;;;;;5103580;28;20471;-91
2023/10/07 10:03:22;;;;;;;14.25;5.60;;;18.10;29.50;;;;;;5118253;28;20043;-94
2023/10/07 10:06:16;;;;;;;16.23;5.00;;;18.60;29.80;;;;;;5101692;28;20094;-92
2023/10/07 10:14:56;;;;;;;15.73;4.60;;;18.30;27.60;;;;;;5089441;28;20083;-88
2023/10/07 10:17:30;;;;;;;17.77;5.65;;;18.50;27.00;;;;;;5116821;28;20051;-88
2023/10/07 10:20:12;;;;;;;11.88;5.00;;;18.50;26.50;;;;;;5099882;28;20079;-88
2023/10/07 10:22:49;;;;;;;13.52;5.43;;;18.60;26.40;;;;;;5098424;28;20052;-88
2023/10/07 10:25:21;;;;;;;12.73;5.55;;;18.60;24.10;;;;;;5099573;28;20126;-89
2023/10/07 10:28:03;;;;;;;13.48;5.05;;;18.60;24.10;;;;;;5099250;28;20188;-89
2023/10/07 10:31:09;;;;;;;20.48;5.30;;;18.70;23.50;;;;;;5101711;28;20050;-91
2023/10/07 10:33:49;;;;;;;14.18;5.65;;;18.70;18.90;;;;;;5118906;28;20051;-93
2023/10/07 10:36:31;;;;;;;;;;;;;;;;;;;;;
2023/10/07 10:39:25;;;;;;;14.93;5.57;;;18.90;15.30;;;;;;5120230;28;20051;-92
2023/10/07 10:41:55;;;;;;;12.82;5.22;;;19.00;10.50;;;;;;5102258;28;20046;-91
2023/10/07 10:44:28;;;;;;;15.18;4.93;;;18.90;15.00;;;;;;5101725;28;20039;-92
2023/10/07 10:46:55;;;;;;;14.77;5.85;;;19.00;11.30;;;;;;5085370;28;20069;-89
2023/10/07 10:49:47;;;;;;;14.60;4.95;;;18.90;9.30;;;;;;5100954;28;20056;-93
2023/10/07 10:55:38;;;;;;;12.35;5.47;;;18.90;1.00;;;;;;5110141;28;20055;-90
2023/10/07 10:58:51;;;;;;;16.25;5.38;;;18.90;1.00;;;;;;5116970;28;20051;-91
2023/10/07 11:01:20;;;;;;;12.93;4.63;;;19.00;1.00;;;;;;5102591;28;20150;-92
2023/10/07 11:04:19;;;;;;;12.38;5.28;;;18.60;1.00;;;;;;5106867;28;20105;-92
2023/10/07 11:07:14;;;;;;;11.18;5.15;;;19.10;1.00;;;;;;5093291;28;20050;-92
2023/10/07 11:09:50;;;;;;;15.02;6.80;;;18.40;1.00;;;;;;5105503;28;20054;-93
2023/10/07 11:12:32;;;;;;;11.52;4.95;;;19.00;1.00;;;;;;5107207;28;20111;-93
2023/10/07 11:15:29;;;;;;;12.00;5.03;;;19.00;1.00;;;;;;5090475;28;20090;-91
2023/10/07 11:18:24;;;;;;;11.05;4.65;;;19.00;1.00;;;;;;5121712;28;20052;-91
2023/10/07 11:24:16;;;;;;;11.80;5.22;;;19.00;1.00;;;;;;5090558;28;20135;-93
2023/10/07 11:26:49;;;;;;;10.40;4.70;;;19.70;1.00;;;;;;5106124;28;20040;-89
2023/10/07 11:29:15;;;;;;;13.95;5.63;;;18.10;1.00;;;;;;5120894;28;20083;-89
2023/10/07 11:32:02;;;;;;;15.30;5.57;;;19.00;1.00;;;;;;5121399;28;20040;-92
2023/10/07 11:35:00;;;;;;;13.43;5.27;;;18.90;1.00;;;;;;5106252;28;20159;-91
2023/10/07 11:37:29;;;;;;;15.50;5.40;;;18.80;1.00;;;;;;5088898;28;20054;-91
2023/10/07 11:40:02;;;;;;;12.30;5.22;;;18.70;1.00;;;;;;5156731;27;20058;-92
2023/10/07 11:43:04;;;;;;;18.60;5.85;;;18.70;1.00;;;;;;5102813;28;20065;-93
2023/10/07 11:45:27;;;;;;;14.63;5.90;;;19.30;1.00;;;;;;5120640;28;20052;-91
2023/10/07 11:48:05;;;;;;;10.70;5.65;;;18.60;1.00;;;;;;5088504;28;20040;-92
2023/10/07 11:50:38;;;;;;;20.48;6.00;;;18.70;1.00;;;;;;5121955;27;20047;-89
2023/10/07 11:53:05;;;;;;;10.15;4.63;;;17.90;1.00;;;;;;5103220;28;20397;-88
2023/10/07 11:55:36;;;;;;;;;;;18.60;1.00;;;;;;5104918;28;20047;-91
2023/10/07 11:58:34;;;;;;;12.90;4.80;;;18.90;1.00;;;;;;5138989;27;19923;-93
2023/10/07 12:01:03;;;;;;;10.90;4.30;;;18.90;1.00;;;;;;5105934;28;20043;-91
2023/10/07 12:03:34;;;;;;;11.70;5.18;;;18.60;1.00;;;;;;5156187;27;20096;-90
2023/10/07 12:06:05;;;;;;;10.15;4.50;;;18.50;1.00;;;;;;5103779;28;20043;-91
2023/10/07 12:08:48;;;;;;;;;;;;;;;;;;;;;
2023/10/07 12:11:22;;;;;;;15.63;6.68;;;18.60;1.00;;;;;;5104258;28;20509;-92
2023/10/07 12:14:23;;;;;;;;;;;;;;;;;;;;;
2023/10/07 12:17:29;;;;;;;10.50;4.97;;;18.80;1.00;;;;;;5104801;28;20508;-93
2023/10/07 12:20:03;;;;;;;13.05;5.63;;;18.70;1.00;;;;;;5104696;28;20493;-91
2023/10/07 12:22:56;;;;;;;7.45;4.28;;;18.70;1.00;;;;;;5103413;28;20052;-91
2023/10/07 12:25:35;;;;;;;12.95;5.30;;;18.70;1.00;;;;;;5118253;28;20097;-91
2023/10/07 12:28:08;;;;;;;9.32;4.68;;;18.70;1.00;;;;;;5084873;28;20512;-89
2023/10/07 12:30:34;;;;;;;10.82;5.50;;;17.80;1.00;;;;;;5085399;28;20055;-87
2023/10/07 12:33:03;;;;;;;;;;;18.70;1.00;;;;;;5152401;27;20044;-88
2023/10/07 12:35:30;;;;;;;11.60;5.45;;;18.80;1.00;;;;;;5135489;27;19920;-88
2023/10/07 12:37:56;;;;;;;13.68;4.65;;;18.90;1.00;;;;;;5100469;28;20493;-88
2023/10/07 12:40:22;;;;;;;14.05;4.93;;;18.90;1.00;;;;;;5100451;28;20055;-87
2023/10/07 12:42:52;;;;;;;;;;;18.90;1.00;;;;;;5151694;27;20073;-88
2023/10/07 12:45:18;;;;;;;10.27;5.47;;;18.80;1.00;;;;;;5134020;27;19920;-88
2023/10/07 12:47:54;;;;;;;16.50;5.28;;;18.80;1.00;;;;;;5100179;28;20046;-89
2023/10/07 12:50:20;;;;;;;14.18;5.10;;;19.60;1.00;;;;;;5100901;28;20040;-88
2023/10/07 12:53:15;;;;;;;12.23;5.35;;;18.70;1.00;;;;;;5101217;28;20050;-88
2023/10/07 12:55:41;;;;;;;11.18;5.47;;;18.80;1.00;;;;;;5100366;28;20087;-88
2023/10/07 12:58:17;;;;;;;13.32;6.03;;;18.80;1.00;;;;;;5102443;28;20044;-88
2023/10/07 13:01:24;;;;;;;11.95;5.32;;;18.00;1.00;;;;;;5155059;27;20130;-93
2023/10/07 13:04:01;;;;;;;15.77;5.40;;;18.90;1.00;;;;;;5122560;28;20047;-88
2023/10/07 13:06:30;;;;;;;9.80;5.28;;;19.00;1.00;;;;;;5102054;28;20047;-87
2023/10/07 13:09:08;;;;;;;;;;;;;;;;;;;;;
2023/10/07 13:11:37;;;;;;;12.77;5.38;;;19.00;1.00;;;;;;5112417;28;20051;-90
2023/10/07 13:14:14;;;;;;;10.25;4.47;;;18.50;1.00;;;;;;5115335;28;20043;-91
2023/10/07 13:16:48;;;;;;;13.10;5.13;;;19.10;1.00;;;;;;5149922;27;20055;-91
2023/10/07 13:19:26;;;;;;;12.43;5.95;;;19.80;1.00;;;;;;5113893;28;20047;-91
2023/10/07 13:21:58;;;;;;;10.27;4.50;;;18.90;1.00;;;;;;5080239;28;20047;-88
2023/10/07 13:24:37;;;;;;;12.68;5.55;;;19.00;1.00;;;;;;5096728;28;20043;-92
2023/10/07 13:27:24;;;;;;;17.17;5.28;;;18.90;1.00;;;;;;5147491;27;20050;-90
2023/10/07 13:30:03;;;;;;;10.55;5.25;;;19.00;1.00;;;;;;5096654;28;20055;-93
2023/10/07 13:32:46;;;;;;;11.68;5.68;;;19.00;1.00;;;;;;5082597;28;20047;-88
2023/10/07 13:35:15;;;;;;;10.77;4.93;;;18.90;1.00;;;;;;5095723;28;20138;-87
2023/10/07 13:37:49;;;;;;;10.43;4.72;;;18.80;1.00;;;;;;5096199;28;20048;-88
2023/10/07 13:40:16;;;;;;;10.07;4.68;;;18.80;1.00;;;;;;5095834;28;20060;-88
2023/10/07 13:42:56;;;;;;;11.05;4.50;;;19.00;1.00;;;;;;5098296;28;20052;-88
2023/10/07 13:45:37;;;;;;;12.00;4.82;;;18.90;1.00;;;;;;5099432;28;20074;-89
2023/10/07 13:48:07;;;;;;;12.02;4.47;;;18.90;1.00;;;;;;5097456;28;20384;-88
2023/10/07 13:50:41;;;;;;;9.85;4.47;;;18.90;1.00;;;;;;5096599;28;20040;-89
2023/10/07 13:58:42;;;;;;;12.65;5.18;;;19.20;1.00;;;;;;5090313;28;20055;-92
2023/10/07 14:02:29;;;;;;;;;;;;;;;;;;;;;
2023/10/07 14:04:33;;;;;;;11.57;4.75;;;19.40;1.00;;;;;;5087877;28;20055;-91
2023/10/07 14:07:43;;;;;;;13.48;5.25;;;18.20;1.00;;;;;;5101700;28;20412;-93
2023/10/07 14:10:14;;;;;;;13.88;5.10;;;18.90;1.00;;;;;;5102206;28;20050;-93
2023/10/07 14:13:01;;;;;;;;;;;;;;;;;;;;;
2023/10/07 14:15:49;;;;;;;9.75;4.70;;;18.80;1.00;;;;;;5115861;28;20047;-91
2023/10/07 14:18:44;;;;;;;;;;;;;;;;;;;;;
2023/10/07 14:21:45;;;;;;;;;;;;;;;;;;;;;
2023/10/07 14:24:25;;;;;;;10.40;5.15;;;18.80;1.00;;;;;;5105411;28;20047;-92
2023/10/07 14:27:08;;;;;;;10.25;4.15;;;18.50;1.00;;;;;;5085218;28;20054;-91
2023/10/07 14:30:01;;;;;;;10.38;4.57;;;18.70;1.00;;;;;;5084914;28;20055;-92
2023/10/07 14:32:31;;;;;;;13.50;4.90;;;18.60;1.00;;;;;;5114591;28;20043;-91
2023/10/07 14:35:12;;;;;;;16.20;5.20;;;18.00;1.00;;;;;;5099037;28;20067;-92
2023/10/07 14:37:50;;;;;;;12.85;5.68;;;18.90;1.00;;;;;;5100814;28;20047;-90
2023/10/07 14:40:18;;;;;;;13.93;5.70;;;18.50;1.00;;;;;;5079944;28;20107;-91
2023/10/07 14:43:14;;;;;;;12.43;5.53;;;18.50;1.00;;;;;;5095861;28;20517;-91
2023/10/07 14:45:51;;;;;;;15.82;5.03;;;18.40;1.00;;;;;;5095614;28;20088;-93
2023/10/07 14:51:07;;;;;;;11.10;5.40;;;18.30;1.00;;;;;;5104792;28;20052;-91
2023/10/07 14:53:36;;;;;;;11.05;5.38;;;18.30;1.00;;;;;;5095565;28;20044;-91
2023/10/07 14:56:39;;;;;;;9.02;5.10;;;18.30;1.00;;;;;;5147063;27;20039;-93
2023/10/07 14:59:17;;;;;;;14.38;5.45;;;18.30;1.00;;;;;;5094896;28;20134;-93
2023/10/07 15:01:53;;;;;;;17.00;6.13;;;18.20;1.00;;;;;;5095817;28;20048;-92
2023/10/07 15:04:20;;;;;;;14.70;6.25;;;18.30;1.00;;;;;;5095162;28;20126;-91
2023/10/07 15:07:05;;;;;;;;;;;;;;;;;;;;;
2023/10/07 15:09:42;;;;;;;13.38;6.57;;;18.20;1.00;;;;;;5097778;28;20039;-91
2023/10/07 15:12:08;;;;;;;15.93;5.32;;;18.20;1.00;;;;;;5095023;28;20043;-92
2023/10/07 15:14:45;;;;;;;10.57;5.32;;;18.10;1.00;;;;;;5095466;28;20039;-93
2023/10/07 15:17:17;;;;;;;9.98;5.03;;;18.10;1.00;;;;;;5096692;28;20052;-92
2023/10/07 15:19:50;;;;;;;11.52;5.40;;;18.10;1.00;;;;;;5100036;28;20050;-92
2023/10/07 15:22:38;;;;;;;16.02;5.95;;;18.10;1.00;;;;;;5083375;28;20134;-91
2023/10/07 15:25:45;;;;;;;9.75;4.72;;;18.10;1.00;;;;;;5084168;28;20052;-93
2023/10/07 15:28:24;;;;;;;12.30;5.43;;;18.00;1.00;;;;;;5117194;28;20055;-92
2023/10/07 15:30:55;;;;;;;8.63;5.07;;;17.80;1.00;;;;;;5149616;27;20091;-91